Time;durP1;ratioP1;P1;durP2;ratioP2;P2;SDS_P1;SDS_P2;PMS_P1;PMS_P2;Temp;Humidity;BMP_temperature;BMP_pressure;BME280_temperature;BME280_humidity;BME280_pressure;Samples;Min_cycle;Max_cycle;Signal;HPM_P1;HPM_P2
2023/01/03 00:00:34;;;;;;;1.38;0.82;;;;;;;;;;5075200;28;20063;-66
2023/01/03 00:03:00;;;;;;;0.93;0.85;;;;;;;;;;5093460;28;20459;-66
2023/01/03 00:05:26;;;;;;;1.20;0.70;;;;;;;;;;5079337;28;20108;-66
2023/01/03 00:07:52;;;;;;;1.73;0.77;;;;;;;;;;5107308;28;20082;-66
2023/01/03 00:10:18;;;;;;;2.15;0.90;;;;;;;;;;5087586;28;20043;-66
2023/01/03 00:12:44;;;;;;;2.38;0.98;;;;;;;;;;5101136;28;20048;-66
2023/01/03 00:15:10;;;;;;;2.28;1.00;;;;;;;;;;5093286;28;20364;-66
2023/01/03 00:17:36;;;;;;;2.72;0.98;;;;;;;;;;5088153;28;20043;-66
2023/01/03 00:20:02;;;;;;;1.33;0.98;;;;;;;;;;5088052;28;20039;-66
2023/01/03 00:22:31;;;;;;;2.75;1.10;;;;;;;;;;5098581;28;20413;-66
2023/01/03 00:24:57;;;;;;;2.95;1.15;;;;;;;;;;5080591;28;20390;-67
2023/01/03 00:27:23;;;;;;;1.20;0.90;;;;;;;;;;5096546;28;20517;-66
2023/01/03 00:29:49;;;;;;;2.08;0.95;;;;;;;;;;5084882;28;20043;-66
2023/01/03 00:32:15;;;;;;;1.02;0.93;;;;;;;;;;5086300;28;20075;-66
2023/01/03 00:34:42;;;;;;;1.80;0.80;;;;;;;;;;5103245;28;20118;-66
2023/01/03 00:37:08;;;;;;;0.70;0.52;;;;;;;;;;5085624;28;20055;-66
2023/01/03 00:39:34;;;;;;;0.98;0.63;;;;;;;;;;5094543;28;20040;-66
2023/01/03 00:42:00;;;;;;;1.02;0.77;;;;;;;;;;5084980;28;20546;-66
2023/01/03 00:44:27;;;;;;;0.70;0.68;;;;;;;;;;5093100;28;20044;-66
2023/01/03 00:46:53;;;;;;;1.85;0.98;;;;;;;;;;5085548;28;20044;-66
2023/01/03 00:49:19;;;;;;;1.13;0.50;;;;;;;;;;5096533;28;20060;-66
2023/01/03 00:51:45;;;;;;;1.55;0.73;;;;;;;;;;5087676;28;20134;-66
2023/01/03 00:54:12;;;;;;;1.00;0.70;;;;;;;;;;5085743;28;20426;-66
2023/01/03 00:56:40;;;;;;;0.55;0.50;;;;;;;;;;5099031;28;20051;-66
2023/01/03 00:59:06;;;;;;;0.70;0.70;;;;;;;;;;5084559;28;20051;-66
2023/01/03 01:01:37;;;;;;;3.30;1.35;;;;;;;;;;5087522;28;20047;-66
2023/01/03 01:04:05;;;;;;;2.10;0.57;;;;;;;;;;5084935;28;20194;-66
2023/01/03 01:06:33;;;;;;;1.42;0.80;;;;;;;;;;5084054;28;20453;-66
2023/01/03 01:09:00;;;;;;;2.17;1.05;;;;;;;;;;5084635;28;20067;-66
2023/01/03 01:11:26;;;;;;;1.10;0.70;;;;;;;;;;5085946;28;20062;-66
2023/01/03 01:13:53;;;;;;;2.50;0.95;;;;;;;;;;5094272;28;20047;-66
2023/01/03 01:16:20;;;;;;;0.93;0.85;;;;;;;;;;5085531;28;20058;-66
2023/01/03 01:18:46;;;;;;;1.95;0.88;;;;;;;;;;5085133;28;20494;-66
2023/01/03 01:21:14;;;;;;;2.45;0.75;;;;;;;;;;5084601;28;20193;-66
2023/01/03 01:23:41;;;;;;;1.52;0.90;;;;;;;;;;5094609;28;20050;-66
2023/01/03 01:26:09;;;;;;;0.95;0.77;;;;;;;;;;5092154;28;20129;-66
2023/01/03 01:28:35;;;;;;;3.38;0.70;;;;;;;;;;5087011;28;20047;-66
2023/01/03 01:31:02;;;;;;;2.03;0.85;;;;;;;;;;5096397;28;20688;-66
2023/01/03 01:33:28;;;;;;;2.45;0.60;;;;;;;;;;5095341;28;20051;-66
2023/01/03 01:35:54;;;;;;;0.75;0.60;;;;;;;;;;5084033;28;20048;-66
2023/01/03 01:38:20;;;;;;;0.57;0.40;;;;;;;;;;5084998;28;20055;-66
2023/01/03 01:40:46;;;;;;;1.60;0.63;;;;;;;;;;5091658;28;20051;-66
2023/01/03 01:46:26;;;;;;;1.33;0.40;;;;;;;;;;5090340;28;20511;-66
2023/01/03 01:48:56;;;;;;;0.82;0.80;;;;;;;;;;5084226;28;20125;-66
2023/01/03 01:51:23;;;;;;;1.65;0.80;;;;;;;;;;5094497;28;20054;-66
2023/01/03 01:53:52;;;;;;;0.90;0.80;;;;;;;;;;5084311;28;20047;-66
2023/01/03 01:56:23;;;;;;;1.55;0.52;;;;;;;;;;5095710;28;20093;-66
2023/01/03 01:58:50;;;;;;;2.08;1.17;;;;;;;;;;5082706;28;20177;-66
2023/01/03 02:01:18;;;;;;;1.00;0.40;;;;;;;;;;5093033;28;20123;-66
2023/01/03 02:03:45;;;;;;;0.35;0.35;;;;;;;;;;5092870;28;20143;-66
2023/01/03 02:06:13;;;;;;;0.47;0.47;;;;;;;;;;5085779;28;20177;-66
2023/01/03 02:08:39;;;;;;;0.63;0.40;;;;;;;;;;5098424;28;20047;-66
2023/01/03 02:11:08;;;;;;;0.90;0.50;;;;;;;;;;5094454;28;20059;-66
2023/01/03 02:13:44;;;;;;;0.75;0.50;;;;;;;;;;5085666;28;20059;-66
2023/01/03 02:16:16;;;;;;;2.10;1.17;;;;;;;;;;5083757;28;20535;-66
2023/01/03 02:18:53;;;;;;;2.30;1.10;;;;;;;;;;5093606;28;20063;-66
2023/01/03 02:21:34;;;;;;;0.93;0.93;;;;;;;;;;5084182;28;20055;-65
2023/01/03 02:24:07;;;;;;;1.10;0.63;;;;;;;;;;5089325;28;20054;-65
2023/01/03 02:26:38;;;;;;;1.15;0.40;;;;;;;;;;5095305;28;20040;-66
2023/01/03 02:29:10;;;;;;;1.17;0.82;;;;;;;;;;5084540;28;20135;-66
2023/01/03 02:31:36;;;;;;;1.30;0.80;;;;;;;;;;5096343;28;20140;-65
2023/01/03 02:34:04;;;;;;;1.98;0.82;;;;;;;;;;5092313;28;20119;-65
2023/01/03 02:36:50;;;;;;;2.60;1.00;;;;;;;;;;5094800;28;20135;-65
2023/01/03 02:39:33;;;;;;;2.00;0.82;;;;;;;;;;5081065;28;20078;-65
2023/01/03 02:45:15;;;;;;;1.13;0.60;;;;;;;;;;5082705;28;20051;-65
2023/01/03 02:48:01;;;;;;;1.02;0.65;;;;;;;;;;5089245;28;20478;-65
2023/01/03 02:50:30;;;;;;;2.30;0.90;;;;;;;;;;5094075;28;20048;-65
2023/01/03 02:52:59;;;;;;;0.57;0.40;;;;;;;;;;5090590;28;20093;-65
2023/01/03 02:55:26;;;;;;;0.98;0.50;;;;;;;;;;5084432;28;20131;-65
2023/01/03 02:57:56;;;;;;;0.50;0.50;;;;;;;;;;5085332;28;20060;-65
2023/01/03 03:00:23;;;;;;;0.32;0.32;;;;;;;;;;5091854;28;20486;-65
2023/01/03 03:02:51;;;;;;;0.50;0.40;;;;;;;;;;5092019;28;20048;-65
2023/01/03 03:05:44;;;;;;;0.82;0.40;;;;;;;;;;5090799;28;20123;-66
2023/01/03 03:08:10;;;;;;;1.02;0.57;;;;;;;;;;5044550;28;20071;-65
2023/01/03 03:13:24;;;;;;;2.63;0.73;;;;;;;;;;5083499;28;20048;-65
2023/01/03 03:15:54;;;;;;;1.38;0.70;;;;;;;;;;5085555;28;20072;-65
2023/01/03 03:18:34;;;;;;;0.80;0.68;;;;;;;;;;5082976;28;20048;-65
2023/01/03 03:26:38;;;;;;;1.38;0.98;;;;;;;;;;5093717;28;20079;-65
2023/01/03 03:29:08;;;;;;;1.10;0.80;;;;;;;;;;5093815;28;20051;-65
2023/01/03 03:31:36;;;;;;;0.77;0.77;;;;;;;;;;5088584;28;20075;-65
2023/01/03 03:34:11;;;;;;;0.95;0.40;;;;;;;;;;5097911;28;20044;-65
2023/01/03 03:36:52;;;;;;;0.85;0.68;;;;;;;;;;5088434;28;20048;-65
2023/01/03 03:45:00;;;;;;;0.50;0.50;;;;;;;;;;5094642;28;20572;-65
2023/01/03 03:47:26;;;;;;;1.00;0.45;;;;;;;;;;5100288;28;20047;-65
2023/01/03 03:49:54;;;;;;;0.57;0.50;;;;;;;;;;5080165;28;20401;-65
2023/01/03 03:52:23;;;;;;;0.70;0.70;;;;;;;;;;5089760;28;20054;-65
2023/01/03 03:54:53;;;;;;;0.52;0.50;;;;;;;;;;5084288;28;20043;-65
2023/01/03 03:57:45;;;;;;;0.43;0.43;;;;;;;;;;5087931;28;20032;-65
2023/01/03 04:00:14;;;;;;;0.63;0.50;;;;;;;;;;5092904;28;20087;-65
2023/01/03 04:02:41;;;;;;;0.57;0.32;;;;;;;;;;5088668;28;20083;-65
2023/01/03 04:05:09;;;;;;;0.70;0.47;;;;;;;;;;5097465;28;20040;-65
2023/01/03 04:07:35;;;;;;;0.60;0.60;;;;;;;;;;5091294;28;20028;-65
2023/01/03 04:10:01;;;;;;;0.60;0.60;;;;;;;;;;5088188;28;20047;-65
2023/01/03 04:12:27;;;;;;;0.80;0.57;;;;;;;;;;5088249;28;20047;-65
2023/01/03 04:14:53;;;;;;;0.35;0.32;;;;;;;;;;5085515;28;20043;-65
2023/01/03 04:17:19;;;;;;;1.02;0.57;;;;;;;;;;5093923;28;20425;-65
2023/01/03 04:19:45;;;;;;;0.40;0.40;;;;;;;;;;5096879;28;20032;-65
2023/01/03 04:22:11;;;;;;;1.13;0.30;;;;;;;;;;5085329;28;20044;-65
2023/01/03 04:24:37;;;;;;;0.50;0.40;;;;;;;;;;5098371;28;20050;-65
2023/01/03 04:27:03;;;;;;;0.73;0.70;;;;;;;;;;5088135;28;20606;-65
2023/01/03 04:29:29;;;;;;;0.93;0.52;;;;;;;;;;5097725;28;20101;-65
2023/01/03 04:31:55;;;;;;;0.52;0.47;;;;;;;;;;5085465;28;20139;-65
2023/01/03 04:34:21;;;;;;;0.30;0.30;;;;;;;;;;5091093;28;20063;-65
2023/01/03 04:36:47;;;;;;;0.30;0.30;;;;;;;;;;5076924;28;20056;-65
2023/01/03 04:39:13;;;;;;;0.50;0.45;;;;;;;;;;5076064;28;20112;-65
2023/01/03 04:41:39;;;;;;;1.00;0.55;;;;;;;;;;5083786;28;20076;-65
2023/01/03 04:44:05;;;;;;;1.10;0.70;;;;;;;;;;5070843;28;20048;-66
2023/01/03 04:46:32;;;;;;;0.47;0.47;;;;;;;;;;5091469;28;20043;-65
2023/01/03 04:48:59;;;;;;;0.80;0.73;;;;;;;;;;5087888;28;20047;-65
2023/01/03 04:51:25;;;;;;;0.77;0.75;;;;;;;;;;5094544;28;20379;-65
2023/01/03 04:53:51;;;;;;;0.63;0.47;;;;;;;;;;5070380;28;20044;-65
2023/01/03 04:56:17;;;;;;;1.23;0.60;;;;;;;;;;5083429;28;20488;-65
2023/01/03 04:58:43;;;;;;;0.50;0.50;;;;;;;;;;5082854;28;20048;-65
2023/01/03 05:01:10;;;;;;;0.88;0.82;;;;;;;;;;5085242;28;20050;-65
2023/01/03 05:03:36;;;;;;;1.10;0.50;;;;;;;;;;5099242;28;20544;-65
2023/01/03 05:06:04;;;;;;;0.70;0.60;;;;;;;;;;5087601;28;20477;-65
2023/01/03 05:08:30;;;;;;;0.85;0.70;;;;;;;;;;5097064;28;19920;-65
2023/01/03 05:10:56;;;;;;;1.30;0.95;;;;;;;;;;5086218;28;20048;-65
2023/01/03 05:13:22;;;;;;;1.65;1.13;;;;;;;;;;5097437;28;20044;-65
2023/01/03 05:15:48;;;;;;;0.90;0.85;;;;;;;;;;5095338;28;20075;-65
2023/01/03 05:18:14;;;;;;;2.22;0.63;;;;;;;;;;5093455;28;20040;-65
2023/01/03 05:26:12;;;;;;;3.50;0.93;;;;;;;;;;5092999;28;20040;-65
2023/01/03 05:28:38;;;;;;;3.00;1.50;;;;;;;;;;5084011;28;20134;-65
2023/01/03 05:31:04;;;;;;;1.60;1.38;;;;;;;;;;5083939;28;20093;-65
2023/01/03 05:33:30;;;;;;;1.98;1.10;;;;;;;;;;5085485;28;20497;-65
2023/01/03 05:35:57;;;;;;;;;;;;;;;;;;5085160;28;20141;-65
2023/01/03 05:38:23;;;;;;;;;;;;;;;;;;5092717;28;19994;-65
2023/01/03 05:40:49;;;;;;;;;;;;;;;;;;5084792;28;20413;-65
2023/01/03 05:43:14;;;;;;;;;;;;;;;;;;5097387;28;20015;-65
2023/01/03 05:45:40;;;;;;;;;;;;;;;;;;5092826;28;19920;-65
2023/01/03 05:48:06;;;;;;;;;;;;;;;;;;5094496;28;19935;-65
2023/01/03 05:50:32;;;;;;;;;;;;;;;;;;5085726;28;19931;-65
2023/01/03 05:52:58;;;;;;;;;;;;;;;;;;5083037;28;19947;-65
2023/01/03 05:55:24;;;;;;;;;;;;;;;;;;5085021;28;20374;-65
2023/01/03 05:57:50;;;;;;;;;;;;;;;;;;5094327;28;19916;-65
2023/01/03 06:00:16;;;;;;;;;;;;;;;;;;5083518;28;19924;-65
2023/01/03 06:02:42;;;;;;;;;;;;;;;;;;5085515;28;20282;-65
2023/01/03 06:05:08;;;;;;;;;;;;;;;;;;5089356;28;19931;-65
2023/01/03 06:07:36;;;;;;;;;;;;;;;;;;5093271;28;19924;-65
2023/01/03 06:10:01;;;;;;;;;;;;;;;;;;5095810;28;19919;-65
2023/01/03 06:12:27;;;;;;;;;;;;;;;;;;5095497;28;20264;-65
2023/01/03 06:14:53;;;;;;;;;;;;;;;;;;5084977;28;19945;-65
2023/01/03 06:20:04;;;;;;;;;;;;;;;;;;5077379;28;20014;-65
2023/01/03 06:22:30;;;;;;;;;;;;;;;;;;5095206;28;19999;-65
2023/01/03 06:24:56;;;;;;;;;;;;;;;;;;5085123;28;20417;-65
2023/01/03 06:27:21;;;;;;;;;;;;;;;;;;5096693;28;19920;-65
2023/01/03 06:29:47;;;;;;;;;;;;;;;;;;5083492;28;19924;-65
2023/01/03 06:32:13;;;;;;;;;;;;;;;;;;5093973;28;19920;-65
2023/01/03 06:34:39;;;;;;;;;;;;;;;;;;5096356;28;19949;-65
2023/01/03 06:37:05;;;;;;;;;;;;;;;;;;5092144;28;19920;-65
2023/01/03 06:39:32;;;;;;;;;;;;;;;;;;5083213;28;19963;-65
2023/01/03 06:41:58;;;;;;;;;;;;;;;;;;5094759;28;19927;-65
2023/01/03 06:44:24;;;;;;;;;;;;;;;;;;5083940;28;19928;-65
2023/01/03 06:55:04;;;;;;;2.80;2.33;;;;;;;;;;5092413;28;20126;-65
2023/01/03 06:57:30;;;;;;;2.65;2.20;;;;;;;;;;5091463;28;20696;-65
2023/01/03 06:59:56;;;;;;;4.05;2.90;;;;;;;;;;5093971;28;20147;-64
2023/01/03 07:02:22;;;;;;;3.17;2.50;;;;;;;;;;5082898;28;20123;-64
2023/01/03 07:04:48;;;;;;;2.90;2.35;;;;;;;;;;5093932;28;20031;-65
2023/01/03 07:07:14;;;;;;;2.88;2.25;;;;;;;;;;5095856;28;20181;-64
2023/01/03 07:09:40;;;;;;;2.47;2.28;;;;;;;;;;5095289;28;20039;-65
2023/01/03 07:14:51;;;;;;;2.95;2.65;;;;;;;;;;5088164;28;20080;-65
2023/01/03 07:17:17;;;;;;;3.45;3.00;;;;;;;;;;5089806;28;20076;-65
2023/01/03 07:19:43;;;;;;;3.50;2.55;;;;;;;;;;5096492;28;20084;-65
2023/01/03 07:22:09;;;;;;;3.88;3.10;;;;;;;;;;5088778;28;20044;-65
2023/01/03 07:24:35;;;;;;;4.13;3.13;;;;;;;;;;5097428;28;20443;-67
2023/01/03 07:27:01;;;;;;;4.28;3.53;;;;;;;;;;5086110;28;20055;-65
2023/01/03 07:29:27;;;;;;;4.85;3.60;;;;;;;;;;5100596;28;20044;-66
2023/01/03 07:31:53;;;;;;;4.47;3.40;;;;;;;;;;5100763;28;20047;-66
2023/01/03 07:34:19;;;;;;;6.45;4.07;;;;;;;;;;5102532;28;20390;-66
2023/01/03 07:36:45;;;;;;;4.38;3.63;;;;;;;;;;5099789;28;20059;-66
2023/01/03 07:39:11;;;;;;;3.83;3.40;;;;;;;;;;5098997;28;20106;-66
2023/01/03 07:44:21;;;;;;;;;;;;;;;;;;5087358;28;19920;-66
2023/01/03 07:46:47;;;;;;;;;;;;;;;;;;5088228;28;19923;-65
2023/01/03 07:49:13;;;;;;;;;;;;;;;;;;5089127;28;20328;-65
2023/01/03 07:51:39;;;;;;;;;;;;;;;;;;5088709;28;19923;-65
2023/01/03 07:54:06;;;;;;;;;;;;;;;;;;5085991;28;19924;-65
2023/01/03 07:56:32;;;;;;;;;;;;;;;;;;5097180;28;19924;-67
2023/01/03 07:58:58;;;;;;;;;;;;;;;;;;5088660;28;19926;-66
2023/01/03 08:01:24;;;;;;;;;;;;;;;;;;5098221;28;19949;-66
2023/01/03 08:03:49;;;;;;;;;;;;;;;;;;5096081;28;19920;-66
2023/01/03 08:06:15;;;;;;;;;;;;;;;;;;5087557;28;19927;-66
2023/01/03 08:08:41;;;;;;;;;;;;;;;;;;5104084;28;20193;-66
2023/01/03 08:13:52;;;;;;;;;;;;;;;;;;5093789;28;20362;-66
2023/01/03 08:16:18;;;;;;;;;;;;;;;;;;5099760;28;19973;-66
2023/01/03 08:18:44;;;;;;;;;;;;;;;;;;5101206;28;19923;-66
2023/01/03 08:21:10;;;;;;;;;;;;;;;;;;5081632;28;19924;-66
2023/01/03 08:23:36;;;;;;;;;;;;;;;;;;5087845;28;19919;-66
2023/01/03 08:26:01;;;;;;;;;;;;;;;;;;5101271;28;20410;-66
2023/01/03 08:28:27;;;;;;;;;;;;;;;;;;5085729;28;20293;-66
2023/01/03 08:30:53;;;;;;;;;;;;;;;;;;5087062;28;20437;-66
2023/01/03 08:33:19;;;;;;;;;;;;;;;;;;5098286;28;20266;-66
2023/01/03 08:35:45;;;;;;;;;;;;;;;;;;5087281;28;19985;-66
2023/01/03 08:38:11;;;;;;;;;;;;;;;;;;5096187;28;19920;-65
2023/01/03 08:40:37;;;;;;;;;;;;;;;;;;5098819;28;19919;-66
2023/01/03 08:43:03;;;;;;;;;;;;;;;;;;5099151;28;19945;-66
2023/01/03 08:45:29;;;;;;;;;;;;;;;;;;5099055;28;19923;-66
2023/01/03 08:47:57;;;;;;;;;;;;;;;;;;5088984;28;19930;-66
2023/01/03 08:50:23;;;;;;;;;;;;;;;;;;5096439;28;19927;-66
2023/01/03 08:52:49;;;;;;;;;;;;;;;;;;5096892;28;20274;-65
2023/01/03 08:55:15;;;;;;;;;;;;;;;;;;5106192;28;19927;-66
2023/01/03 08:57:41;;;;;;;;;;;;;;;;;;5098482;28;19920;-66
2023/01/03 09:00:07;;;;;;;;;;;;;;;;;;5085643;28;19924;-66
2023/01/03 09:02:33;;;;;;;;;;;;;;;;;;5087573;28;20264;-66
2023/01/03 09:04:59;;;;;;;;;;;;;;;;;;5098207;28;19919;-66
2023/01/03 09:07:25;;;;;;;;;;;;;;;;;;5087414;28;19926;-66
2023/01/03 09:09:51;;;;;;;;;;;;;;;;;;5093234;28;19920;-66
2023/01/03 09:12:17;;;;;;;;;;;;;;;;;;5095553;28;20384;-66
2023/01/03 09:14:43;;;;;;;;;;;;;;;;;;5100176;28;19920;-66
2023/01/03 09:17:09;;;;;;;;;;;;;;;;;;5096942;28;19928;-66
2023/01/03 09:19:34;;;;;;;;;;;;;;;;;;5087573;28;19924;-66
2023/01/03 09:22:00;;;;;;;;;;;;;;;;;;5097428;28;19919;-66
2023/01/03 09:24:26;;;;;;;;;;;;;;;;;;5098767;28;20901;-66
2023/01/03 09:26:52;;;;;;;;;;;;;;;;;;5063424;28;20374;-66
2023/01/03 09:29:18;;;;;;;;;;;;;;;;;;5090075;28;20336;-66
2023/01/03 09:31:44;;;;;;;;;;;;;;;;;;5080033;28;19920;-66
2023/01/03 09:34:10;;;;;;;;;;;;;;;;;;5094125;28;19920;-65
2023/01/03 09:36:37;;;;;;;;;;;;;;;;;;5088731;28;19924;-64
2023/01/03 09:39:03;;;;;;;;;;;;;;;;;;5088169;28;20266;-65
2023/01/03 09:41:29;;;;;;;;;;;;;;;;;;5069990;28;19977;-64
2023/01/03 09:43:55;;;;;;;;;;;;;;;;;;5094315;28;19920;-67
2023/01/03 09:46:21;;;;;;;;;;;;;;;;;;5080944;28;19920;-63
2023/01/03 09:48:47;;;;;;;;;;;;;;;;;;5096709;28;19931;-64
2023/01/03 10:04:56;;;;;;;;;;;;;;;;;;5069870;28;20003;-63
2023/01/03 10:07:22;;;;;;;;;;;;;;;;;;5082237;28;20010;-63
2023/01/03 10:09:48;;;;;;;;;;;;;;;;;;5092196;28;19964;-63
2023/01/03 10:12:14;;;;;;;;;;;;;;;;;;5078219;28;19920;-63
2023/01/03 10:14:40;;;;;;;;;;;;;;;;;;5080882;28;20282;-63
2023/01/03 10:17:06;;;;;;;;;;;;;;;;;;5081931;28;19919;-63
2023/01/03 10:19:32;;;;;;;;;;;;;;;;;;5083232;28;20214;-63
2023/01/03 10:22:09;;;;;;;9.25;7.53;;;;;;;;;;5094497;28;19919;-63
2023/01/03 10:24:45;;;;;;;8.40;7.50;;;;;;;;;;5082716;28;20036;-64
2023/01/03 10:27:14;;;;;;;11.75;7.80;;;;;;;;;;5083541;28;20097;-63
2023/01/03 10:29:40;;;;;;;;;;;;;;;;;;5084009;28;20059;-63
2023/01/03 10:32:09;;;;;;;9.18;7.60;;;;;;;;;;5063367;28;20294;-63
2023/01/03 10:34:37;;;;;;;11.18;8.45;;;;;;;;;;5072536;28;20516;-64
2023/01/03 10:37:03;;;;;;;;;;;;;;;;;;5085406;28;20290;-63
2023/01/03 10:39:29;;;;;;;;;;;;;;;;;;5079263;28;19920;-63
2023/01/03 10:41:55;;;;;;;;;;;;;;;;;;5105354;28;19923;-63
2023/01/03 10:44:28;;;;;;;11.43;9.32;;;;;;;;;;5098620;28;19926;-63
2023/01/03 10:46:56;;;;;;;10.98;8.60;;;;;;;;;;5102279;28;20102;-62
2023/01/03 10:49:23;;;;;;;10.18;7.57;;;;;;;;;;5092238;28;20513;-62
2023/01/03 10:51:52;;;;;;;10.45;8.23;;;;;;;;;;5080220;28;20466;-62
2023/01/03 10:54:18;;;;;;;11.43;8.97;;;;;;;;;;5062333;28;20039;-62
2023/01/03 10:56:45;;;;;;;10.43;8.60;;;;;;;;;;5081199;28;20047;-62
2023/01/03 10:59:15;;;;;;;12.93;10.02;;;;;;;;;;5099445;28;20109;-62
2023/01/03 11:02:01;;;;;;;12.60;9.15;;;;;;;;;;5094609;28;20044;-62
2023/01/03 11:04:28;;;;;;;12.90;9.68;;;;;;;;;;5088056;28;20062;-62
2023/01/03 11:06:57;;;;;;;9.95;7.80;;;;;;;;;;5083586;28;20040;-62
2023/01/03 11:09:23;;;;;;;11.23;8.27;;;;;;;;;;5084485;28;20044;-62
2023/01/03 11:11:54;;;;;;;10.88;8.38;;;;;;;;;;5089300;28;20044;-62
2023/01/03 11:14:24;;;;;;;12.45;8.35;;;;;;;;;;5079538;28;20313;-62
2023/01/03 11:16:54;;;;;;;19.63;10.90;;;;;;;;;;5086994;28;20048;-62
2023/01/03 11:19:20;;;;;;;15.40;11.25;;;;;;;;;;5098954;28;20043;-62
2023/01/03 11:21:49;;;;;;;14.60;10.80;;;;;;;;;;5100781;28;20659;-62
2023/01/03 11:24:34;;;;;;;16.88;11.10;;;;;;;;;;5082254;28;20067;-62
2023/01/03 11:27:03;;;;;;;15.57;10.85;;;;;;;;;;5088200;28;20045;-62
2023/01/03 11:29:48;;;;;;;14.65;10.23;;;;;;;;;;5077098;28;20075;-62
2023/01/03 11:32:24;;;;;;;14.18;9.70;;;;;;;;;;5089794;28;20328;-62
2023/01/03 11:35:09;;;;;;;15.52;11.57;;;;;;;;;;5090963;28;20048;-62
2023/01/03 11:37:54;;;;;;;17.83;12.75;;;;;;;;;;5090149;28;20155;-62
2023/01/03 11:40:28;;;;;;;21.95;14.18;;;;;;;;;;5075826;28;20394;-62
2023/01/03 11:43:17;;;;;;;22.95;15.05;;;;;;;;;;5090820;28;20071;-62
2023/01/03 11:45:55;;;;;;;21.40;14.65;;;;;;;;;;5060995;28;20057;-62
2023/01/03 11:48:33;;;;;;;19.20;14.80;;;;;;;;;;5059416;28;20056;-62
2023/01/03 11:51:10;;;;;;;19.95;13.57;;;;;;;;;;5082089;28;20079;-62
2023/01/03 11:53:48;;;;;;;19.98;14.13;;;;;;;;;;5079578;28;20044;-62
2023/01/03 11:56:24;;;;;;;18.48;12.25;;;;;;;;;;5088208;28;20059;-62
2023/01/03 11:59:06;;;;;;;17.23;11.77;;;;;;;;;;5095479;28;20044;-62
2023/01/03 12:01:52;;;;;;;16.52;11.20;;;;;;;;;;5062633;28;20083;-62
2023/01/03 12:04:39;;;;;;;16.85;11.35;;;;;;;;;;5090448;28;20052;-62
2023/01/03 12:07:12;;;;;;;15.65;11.15;;;;;;;;;;5092152;28;20093;-62
2023/01/03 12:09:48;;;;;;;17.35;12.05;;;;;;;;;;5084794;28;20048;-62
2023/01/03 12:12:14;;;;;;;25.17;16.52;;;;;;;;;;5082411;28;20052;-62
2023/01/03 12:14:43;;;;;;;26.50;17.58;;;;;;;;;;5090560;28;20036;-62
2023/01/03 12:17:12;;;;;;;28.90;17.98;;;;;;;;;;5088491;28;20051;-62
2023/01/03 12:19:43;;;;;;;29.17;19.55;;;;;;;;;;5089183;28;20544;-62
2023/01/03 12:22:19;;;;;;;30.20;20.02;;;;;;;;;;5090473;28;20036;-62
2023/01/03 12:24:51;;;;;;;27.65;18.15;;;;;;;;;;5059466;28;20048;-62
2023/01/03 12:27:20;;;;;;;27.65;18.38;;;;;;;;;;5063106;28;20248;-62
2023/01/03 12:29:51;;;;;;;26.65;18.23;;;;;;;;;;5076343;28;20048;-62
2023/01/03 12:32:37;;;;;;;21.33;15.02;;;;;;;;;;5088406;28;20390;-62
2023/01/03 12:35:24;;;;;;;22.27;13.75;;;;;;;;;;5077013;28;20554;-62
2023/01/03 12:37:51;;;;;;;21.77;15.52;;;;;;;;;;5079897;28;20033;-62
2023/01/03 12:40:26;;;;;;;25.90;16.38;;;;;;;;;;5085926;28;20414;-62
2023/01/03 12:42:57;;;;;;;22.30;15.85;;;;;;;;;;5086621;28;20091;-62
2023/01/03 12:45:42;;;;;;;28.27;16.92;;;;;;;;;;5086954;28;20044;-62
2023/01/03 12:48:08;;;;;;;24.08;16.63;;;;;;;;;;5084918;28;20039;-62
2023/01/03 12:50:44;;;;;;;28.60;18.73;;;;;;;;;;5090056;28;20062;-62
2023/01/03 12:53:17;;;;;;;26.75;17.90;;;;;;;;;;5086043;28;20079;-62
2023/01/03 12:56:01;;;;;;;26.20;17.17;;;;;;;;;;5101029;28;20499;-62
2023/01/03 12:58:47;;;;;;;26.45;17.90;;;;;;;;;;5093420;28;20071;-62
2023/01/03 13:01:16;;;;;;;29.08;18.92;;;;;;;;;;5097711;28;20040;-62
2023/01/03 13:03:48;;;;;;;28.95;18.42;;;;;;;;;;5087721;28;20048;-62
2023/01/03 13:06:26;;;;;;;25.85;17.90;;;;;;;;;;5084881;28;20236;-62
2023/01/03 13:08:59;;;;;;;22.38;16.25;;;;;;;;;;5083526;28;20089;-62
2023/01/03 13:11:25;;;;;;;20.80;15.18;;;;;;;;;;5090412;28;20051;-62
2023/01/03 13:13:59;;;;;;;18.67;13.80;;;;;;;;;;5078607;28;20044;-62
2023/01/03 13:16:51;;;;;;;26.67;16.70;;;;;;;;;;5070669;28;20040;-62
2023/01/03 13:19:20;;;;;;;17.95;13.50;;;;;;;;;;5062190;28;20083;-62
2023/01/03 13:21:49;;;;;;;19.48;13.73;;;;;;;;;;5088012;28;20105;-62
2023/01/03 13:24:35;;;;;;;20.73;14.10;;;;;;;;;;5078724;28;20081;-62
2023/01/03 13:27:19;;;;;;;18.48;14.55;;;;;;;;;;5096582;28;20043;-62
2023/01/03 13:29:48;;;;;;;19.55;13.60;;;;;;;;;;5094024;28;20032;-62
2023/01/03 13:32:17;;;;;;;21.75;12.93;;;;;;;;;;5061541;28;20044;-62
2023/01/03 13:34:43;;;;;;;16.65;12.20;;;;;;;;;;5068568;28;20040;-62
2023/01/03 13:37:13;;;;;;;18.48;13.73;;;;;;;;;;5083840;28;20167;-62
2023/01/03 13:39:42;;;;;;;19.00;12.90;;;;;;;;;;5085564;28;20413;-61
2023/01/03 13:42:27;;;;;;;16.05;11.32;;;;;;;;;;5092114;28;20028;-62
2023/01/03 13:45:12;;;;;;;15.43;11.80;;;;;;;;;;5077453;28;20105;-62
2023/01/03 13:47:40;;;;;;;16.35;11.35;;;;;;;;;;5086092;28;20040;-62
2023/01/03 13:50:18;;;;;;;12.10;9.20;;;;;;;;;;5087142;28;20048;-61
2023/01/03 13:52:56;;;;;;;18.63;11.27;;;;;;;;;;5078632;28;20482;-61
2023/01/03 13:55:38;;;;;;;11.43;9.95;;;;;;;;;;5072519;28;20039;-62
2023/01/03 13:58:27;;;;;;;14.25;9.98;;;;;;;;;;5077934;28;20043;-61
2023/01/03 14:00:58;;;;;;;15.10;11.23;;;;;;;;;;5076987;28;20085;-62
2023/01/03 14:04:03;;;;;;;18.92;11.80;;;;;;;;;;5091951;28;20048;-61
2023/01/03 14:06:40;;;;;;;13.10;10.20;;;;;;;;;;4984377;28;20559;-62
2023/01/03 14:09:06;;;;;;;16.98;12.77;;;;;;;;;;4993640;28;20092;-62
2023/01/03 14:11:35;;;;;;;18.30;12.68;;;;;;;;;;5040220;28;20059;-61
2023/01/03 14:14:21;;;;;;;17.63;13.20;;;;;;;;;;5084246;28;20395;-61
2023/01/03 14:16:49;;;;;;;17.17;12.18;;;;;;;;;;5092749;28;20089;-61
2023/01/03 14:19:23;;;;;;;18.55;12.65;;;;;;;;;;5092173;28;20336;-61
2023/01/03 14:21:55;;;;;;;17.20;12.13;;;;;;;;;;5087619;28;20037;-62
2023/01/03 14:24:22;;;;;;;16.08;13.63;;;;;;;;;;5073715;28;20039;-62
2023/01/03 14:26:49;;;;;;;16.05;11.70;;;;;;;;;;5091220;28;20482;-62
2023/01/03 14:29:36;;;;;;;16.85;11.50;;;;;;;;;;5096125;28;20401;-62
2023/01/03 14:32:03;;;;;;;18.65;11.77;;;;;;;;;;5088691;28;20044;-61
2023/01/03 14:34:33;;;;;;;17.30;12.18;;;;;;;;;;5089328;28;20091;-62
2023/01/03 14:37:01;;;;;;;15.30;11.07;;;;;;;;;;5080287;28;20051;-62
2023/01/03 14:39:33;;;;;;;15.60;11.55;;;;;;;;;;5089582;28;20056;-64
2023/01/03 14:42:03;;;;;;;17.75;11.48;;;;;;;;;;5089300;28;20121;-64
2023/01/03 14:44:29;;;;;;;18.45;11.93;;;;;;;;;;5091094;28;20051;-64
2023/01/03 14:46:57;;;;;;;17.27;12.30;;;;;;;;;;5084077;28;20075;-64
2023/01/03 14:49:25;;;;;;;18.33;13.98;;;;;;;;;;5074959;28;20101;-64
2023/01/03 14:51:55;;;;;;;15.23;11.85;;;;;;;;;;5093647;28;20043;-64
2023/01/03 14:54:21;;;;;;;18.92;14.00;;;;;;;;;;5082528;28;20040;-64
2023/01/03 14:56:48;;;;;;;23.73;14.20;;;;;;;;;;5079437;28;20435;-63
2023/01/03 14:59:16;;;;;;;27.38;15.77;;;;;;;;;;5076163;28;20040;-64
2023/01/03 15:01:42;;;;;;;21.35;14.05;;;;;;;;;;5088809;28;20435;-64
2023/01/03 15:04:13;;;;;;;17.08;11.55;;;;;;;;;;5076670;28;20040;-63
2023/01/03 15:06:53;;;;;;;16.25;11.77;;;;;;;;;;5067928;28;20335;-64
2023/01/03 15:09:21;;;;;;;14.80;11.88;;;;;;;;;;5084690;28;20039;-64
2023/01/03 15:11:58;;;;;;;20.42;13.85;;;;;;;;;;5085995;28;20046;-63
2023/01/03 15:14:34;;;;;;;15.35;13.45;;;;;;;;;;5094445;28;20075;-63
2023/01/03 15:17:02;;;;;;;19.13;13.43;;;;;;;;;;5083100;28;20028;-63
2023/01/03 15:19:30;;;;;;;19.80;12.88;;;;;;;;;;5084513;28;20051;-63
2023/01/03 15:22:15;;;;;;;16.20;11.95;;;;;;;;;;5088924;28;20422;-63
2023/01/03 15:24:43;;;;;;;13.25;10.35;;;;;;;;;;5082214;28;20119;-63
2023/01/03 15:27:28;;;;;;;13.05;10.68;;;;;;;;;;5088689;28;20032;-63
2023/01/03 15:29:54;;;;;;;16.00;11.90;;;;;;;;;;5085550;28;20390;-63
2023/01/03 15:32:20;;;;;;;16.98;12.40;;;;;;;;;;5095697;28;20118;-63
2023/01/03 15:34:48;;;;;;;13.57;10.68;;;;;;;;;;5095345;28;20051;-63
2023/01/03 15:37:18;;;;;;;16.88;12.35;;;;;;;;;;5091571;28;20131;-63
2023/01/03 15:39:45;;;;;;;14.40;11.88;;;;;;;;;;5089973;28;20354;-63
2023/01/03 15:44:58;;;;;;;16.67;14.20;;;;;;;;;;5082826;28;20044;-63
2023/01/03 15:47:28;;;;;;;17.75;13.13;;;;;;;;;;5084990;28;20051;-63
2023/01/03 15:49:56;;;;;;;18.48;14.60;;;;;;;;;;5074138;28;20050;-63
2023/01/03 15:52:22;;;;;;;20.70;15.27;;;;;;;;;;5083673;28;20474;-63
2023/01/03 15:54:48;;;;;;;17.13;13.55;;;;;;;;;;5086902;28;20042;-63
2023/01/03 15:57:19;;;;;;;16.17;12.57;;;;;;;;;;5095148;28;20036;-63
2023/01/03 15:59:46;;;;;;;15.60;12.25;;;;;;;;;;5085373;28;20040;-63
2023/01/03 16:02:14;;;;;;;18.77;12.50;;;;;;;;;;5087779;28;20036;-63
2023/01/03 16:04:40;;;;;;;16.05;12.35;;;;;;;;;;5084456;28;20078;-63
2023/01/03 16:07:08;;;;;;;16.88;14.15;;;;;;;;;;5086103;28;20052;-63
2023/01/03 16:09:34;;;;;;;19.17;13.75;;;;;;;;;;5087856;28;20395;-63
2023/01/03 16:12:00;;;;;;;17.27;13.10;;;;;;;;;;5093046;28;20046;-63
2023/01/03 16:14:32;;;;;;;14.95;12.30;;;;;;;;;;5069670;28;20085;-64